Terminal Aerodrome Forecast
Issued by NWS Knoxville/Tri Cities, TN

Home | Current Version | Previous Version | Text Only | Print | Product List | Glossary On
Versions: 1 2 3 4 5 6 7 8 9 10 11 12 13 14 15 16 17 18 19 20 21 22 23 24 25 26 27 28 29 30 31 32 33 34 35 36
000
FTUS44 KMRX 280738 AAA
TAFTRI
TAF AMD
KTRI 280738Z 2808/2906 VRB03KT P6SM SCT010 BKN050
      TEMPO 2808/2810 BKN010
     FM281000 VRB03KT P6SM OVC010
     FM281400 24005KT P6SM BKN025
     FM281600 24010KT P6SM SCT040 BKN100
     FM290000 24006KT P6SM BKN100=

USA.gov is the U.S. government's official web portal to all federal, state and local government web resources and services.